Time;durP1;ratioP1;P1;durP2;ratioP2;P2;SDS_P1;SDS_P2;PMS_P1;PMS_P2;Temp;Humidity;BMP_temperature;BMP_pressure;BME280_temperature;BME280_humidity;BME280_pressure;Samples;Min_cycle;Max_cycle;Signal;HPM_P1;HPM_P2
2022/08/30 00:03:26;;;;;;;3.80;2.50;;;19.20;99.90;;;;;;5114206;28;20474;-66
2022/08/30 00:05:52;;;;;;;6.57;2.72;;;19.10;99.90;;;;;;5115233;28;20042;-66
2022/08/30 00:08:18;;;;;;;7.20;3.17;;;19.70;99.90;;;;;;5115626;28;20043;-66
2022/08/30 00:10:44;;;;;;;4.13;2.53;;;19.60;99.90;;;;;;5113996;28;20403;-64
2022/08/30 00:13:12;;;;;;;7.05;2.88;;;19.80;99.90;;;;;;5114688;28;20031;-67
2022/08/30 00:15:42;;;;;;;4.28;2.15;;;20.40;99.90;;;;;;5113934;28;20587;-66
2022/08/30 00:18:08;;;;;;;6.05;2.65;;;19.80;99.90;;;;;;5115369;28;20020;-66
2022/08/30 00:20:35;;;;;;;5.43;2.70;;;19.30;99.90;;;;;;5112474;28;21768;-66
2022/08/30 00:23:01;;;;;;;5.15;2.65;;;19.00;99.90;;;;;;5114022;28;20073;-65
2022/08/30 00:25:27;;;;;;;4.20;2.58;;;19.80;99.90;;;;;;5114078;28;20031;-66
2022/08/30 00:27:53;;;;;;;7.75;2.88;;;20.10;99.90;;;;;;5113079;28;20406;-66
2022/08/30 00:30:19;;;;;;;5.72;2.47;;;20.00;99.90;;;;;;5113361;28;20122;-66
2022/08/30 00:32:45;;;;;;;6.05;2.63;;;19.20;99.90;;;;;;5113634;28;20024;-66
2022/08/30 00:35:13;;;;;;;5.07;2.80;;;18.90;99.90;;;;;;5114823;28;20080;-66
2022/08/30 00:37:40;;;;;;;4.13;2.60;;;18.70;99.90;;;;;;5114658;28;20107;-65
2022/08/30 00:40:08;;;;;;;7.13;2.80;;;18.60;99.90;;;;;;5113672;28;20084;-66
2022/08/30 00:42:35;;;;;;;4.20;2.25;;;18.80;99.90;;;;;;5113879;28;20031;-65
2022/08/30 00:45:11;;;;;;;4.45;2.58;;;19.80;99.90;;;;;;5114300;28;20459;-66
2022/08/30 00:47:37;;;;;;;6.25;2.80;;;19.30;99.90;;;;;;5113657;28;20054;-65
2022/08/30 00:50:07;;;;;;;5.10;3.20;;;18.80;99.90;;;;;;5113621;28;20483;-66
2022/08/30 00:52:34;;;;;;;5.05;2.70;;;18.60;99.90;;;;;;5113887;28;20036;-66
2022/08/30 00:55:01;;;;;;;6.00;2.45;;;18.60;99.90;;;;;;5114536;28;20024;-65
2022/08/30 00:57:29;;;;;;;4.32;2.80;;;18.80;99.90;;;;;;5114109;28;20028;-65
2022/08/30 00:59:54;;;;;;;3.60;2.83;;;19.00;99.90;;;;;;5112214;28;20094;-65
2022/08/30 01:02:22;;;;;;;5.15;2.80;;;18.70;99.90;;;;;;5114216;28;20153;-65
2022/08/30 01:04:50;;;;;;;5.90;3.03;;;18.50;99.90;;;;;;5097717;28;20057;-64
2022/08/30 01:07:17;;;;;;;4.10;2.92;;;18.40;99.90;;;;;;5113895;28;20210;-64
2022/08/30 01:09:43;;;;;;;4.93;2.90;;;18.50;99.90;;;;;;5112804;28;20499;-65
2022/08/30 01:12:10;;;;;;;4.28;2.70;;;18.80;99.90;;;;;;5112017;28;20024;-64
2022/08/30 01:14:36;;;;;;;6.47;2.95;;;19.10;99.90;;;;;;5113847;28;20024;-64
2022/08/30 01:17:03;;;;;;;4.05;2.60;;;18.60;99.90;;;;;;5114071;28;20496;-64
2022/08/30 01:19:59;;;;;;;6.70;2.92;;;18.50;99.90;;;;;;5112245;28;20036;-65
2022/08/30 01:22:53;;;;;;;4.00;2.80;;;18.50;99.90;;;;;;5047637;28;20037;-67
2022/08/30 01:25:23;;;;;;;5.72;2.60;;;19.00;99.90;;;;;;5050572;28;20094;-66
2022/08/30 01:28:06;;;;;;;5.10;2.80;;;18.70;99.90;;;;;;5050177;28;20103;-66
2022/08/30 01:30:32;;;;;;;5.07;3.03;;;18.50;99.90;;;;;;5049765;28;20694;-67
2022/08/30 01:33:00;;;;;;;4.47;2.88;;;18.40;99.90;;;;;;5050127;28;20591;-64
2022/08/30 01:35:28;;;;;;;4.47;2.67;;;19.40;99.90;;;;;;5047872;28;20025;-64
2022/08/30 01:37:54;;;;;;;5.88;3.00;;;20.10;99.90;;;;;;5039299;28;20125;-63
2022/08/30 01:40:21;;;;;;;6.57;3.20;;;19.00;99.90;;;;;;5044754;28;20094;-63
2022/08/30 01:42:47;;;;;;;3.70;2.92;;;18.30;99.90;;;;;;5050142;28;20056;-63
2022/08/30 01:45:13;;;;;;;4.78;3.00;;;18.00;99.90;;;;;;5050309;28;20053;-63
2022/08/30 01:47:39;;;;;;;5.72;3.00;;;17.70;99.90;;;;;;5050572;28;20120;-64
2022/08/30 01:50:07;;;;;;;5.00;2.80;;;17.70;99.90;;;;;;5049621;28;20167;-63
2022/08/30 01:52:33;;;;;;;5.03;3.10;;;17.70;99.90;;;;;;5049807;28;20044;-64
2022/08/30 01:54:59;;;;;;;3.17;2.72;;;17.80;99.90;;;;;;5049503;28;20024;-65
2022/08/30 01:57:28;;;;;;;4.35;2.72;;;17.80;99.90;;;;;;5050219;28;20044;-65
2022/08/30 01:59:54;;;;;;;5.50;2.92;;;17.80;99.90;;;;;;5098212;28;20035;-65
2022/08/30 02:02:24;;;;;;;5.25;3.08;;;17.70;99.90;;;;;;5113211;28;20016;-65
2022/08/30 02:04:52;;;;;;;6.40;3.20;;;17.60;99.90;;;;;;5112645;28;20028;-65
2022/08/30 02:07:18;;;;;;;4.70;2.75;;;17.60;99.90;;;;;;5112874;28;20437;-65
2022/08/30 02:09:43;;;;;;;5.13;3.25;;;17.60;99.90;;;;;;5111382;28;20059;-65
2022/08/30 02:12:09;;;;;;;5.00;3.15;;;17.50;99.90;;;;;;5113024;28;20063;-65
2022/08/30 02:14:36;;;;;;;5.13;2.97;;;17.50;99.90;;;;;;5112605;28;20023;-65
2022/08/30 02:17:07;;;;;;;4.47;3.45;;;17.40;99.90;;;;;;5112936;28;20396;-66
2022/08/30 02:19:33;;;;;;;4.60;2.83;;;17.50;99.90;;;;;;5095402;28;20111;-66
2022/08/30 02:21:59;;;;;;;5.30;2.85;;;17.80;99.90;;;;;;5110974;28;20102;-66
2022/08/30 02:24:25;;;;;;;5.53;3.28;;;17.40;99.90;;;;;;5111317;28;20466;-66
2022/08/30 02:26:54;;;;;;;4.53;3.00;;;17.30;99.90;;;;;;5112289;28;20063;-65
2022/08/30 02:29:21;;;;;;;5.10;2.83;;;17.50;99.90;;;;;;5112747;28;20096;-66
2022/08/30 02:31:47;;;;;;;5.88;3.40;;;17.70;99.90;;;;;;5110919;28;20032;-66
2022/08/30 02:34:14;;;;;;;4.75;3.22;;;18.50;99.90;;;;;;5112132;28;20100;-66
2022/08/30 02:36:41;;;;;;;5.20;3.20;;;17.70;99.90;;;;;;5112475;28;20369;-66
2022/08/30 02:39:09;;;;;;;3.80;2.83;;;18.30;99.90;;;;;;5111816;28;20031;-65
2022/08/30 02:41:37;;;;;;;4.45;3.15;;;18.50;99.90;;;;;;5111121;28;20088;-66
2022/08/30 02:44:03;;;;;;;4.65;3.17;;;17.60;99.90;;;;;;5112766;28;20042;-66
2022/08/30 02:46:29;;;;;;;5.28;3.10;;;17.20;99.90;;;;;;5111456;28;20511;-66
2022/08/30 02:48:54;;;;;;;4.32;2.90;;;17.30;99.90;;;;;;5111809;28;20122;-66
2022/08/30 02:51:20;;;;;;;4.03;3.20;;;17.00;99.90;;;;;;5109666;28;20619;-66
2022/08/30 02:53:46;;;;;;;3.30;2.97;;;17.00;99.90;;;;;;5111973;28;20031;-66
2022/08/30 02:56:13;;;;;;;5.25;3.20;;;17.00;99.90;;;;;;5111897;28;20119;-66
2022/08/30 02:58:41;;;;;;;4.22;3.33;;;17.10;99.90;;;;;;5112225;28;20062;-65
2022/08/30 03:01:08;;;;;;;4.20;3.30;;;17.00;99.90;;;;;;5110324;28;20035;-65
2022/08/30 03:03:34;;;;;;;4.28;2.90;;;16.90;99.90;;;;;;5111848;28;20499;-65
2022/08/30 03:06:02;;;;;;;5.90;3.17;;;17.10;99.90;;;;;;5111952;28;20031;-65
2022/08/30 03:08:28;;;;;;;4.60;3.15;;;17.60;99.90;;;;;;5111749;28;20039;-65
2022/08/30 03:10:56;;;;;;;5.70;3.28;;;17.10;99.90;;;;;;5110164;28;20020;-65
2022/08/30 03:13:23;;;;;;;8.60;3.40;;;17.70;99.90;;;;;;5111770;28;20128;-65
2022/08/30 03:15:49;;;;;;;6.63;3.10;;;18.10;99.90;;;;;;5111878;28;20098;-65
2022/08/30 03:18:16;;;;;;;4.03;3.30;;;17.70;99.90;;;;;;5111819;28;20026;-65
2022/08/30 03:20:41;;;;;;;5.22;3.45;;;17.00;99.90;;;;;;5109488;28;20571;-65
2022/08/30 03:23:07;;;;;;;5.03;3.33;;;16.90;99.90;;;;;;5111201;28;20099;-66
2022/08/30 03:25:33;;;;;;;5.15;3.40;;;16.90;99.90;;;;;;5111667;28;20031;-66
2022/08/30 03:27:59;;;;;;;4.28;3.20;;;17.00;99.90;;;;;;5110663;28;20019;-65
2022/08/30 03:30:25;;;;;;;7.50;3.30;;;17.50;99.90;;;;;;5109444;28;20024;-65
2022/08/30 03:32:51;;;;;;;4.65;3.25;;;17.20;99.90;;;;;;5110471;28;20111;-66
2022/08/30 03:35:17;;;;;;;4.47;3.30;;;16.70;99.90;;;;;;5109080;28;20115;-65
2022/08/30 03:37:44;;;;;;;6.40;3.72;;;16.50;99.90;;;;;;5110375;28;20024;-65
2022/08/30 03:40:12;;;;;;;7.10;3.40;;;16.70;99.90;;;;;;5110629;28;20102;-66
2022/08/30 03:42:40;;;;;;;4.43;3.50;;;16.50;99.90;;;;;;5111667;28;20387;-65
2022/08/30 03:45:06;;;;;;;5.63;3.20;;;16.40;99.90;;;;;;5111577;28;20035;-65
2022/08/30 03:47:32;;;;;;;5.85;3.53;;;16.50;99.90;;;;;;5109941;28;20069;-65
2022/08/30 03:49:58;;;;;;;4.30;3.30;;;16.80;99.90;;;;;;5111550;28;20051;-66
2022/08/30 03:52:24;;;;;;;4.82;3.85;;;16.40;99.90;;;;;;5110818;28;20032;-66
2022/08/30 03:54:50;;;;;;;5.95;3.30;;;16.40;99.90;;;;;;5110246;28;20056;-65
2022/08/30 03:57:16;;;;;;;5.57;3.03;;;16.50;99.90;;;;;;5110475;28;20062;-66
2022/08/30 03:59:42;;;;;;;5.40;3.10;;;17.80;99.90;;;;;;5111843;28;20506;-65
2022/08/30 04:02:08;;;;;;;5.47;3.17;;;17.20;99.90;;;;;;5110369;28;20024;-66
2022/08/30 04:04:33;;;;;;;4.00;3.00;;;16.60;99.90;;;;;;5111226;28;20144;-66
2022/08/30 04:06:59;;;;;;;4.38;3.13;;;17.10;99.90;;;;;;5109692;28;20035;-65
2022/08/30 04:09:25;;;;;;;4.63;3.33;;;17.30;99.90;;;;;;5111424;28;20102;-65
2022/08/30 04:11:50;;;;;;;5.32;3.50;;;16.90;99.90;;;;;;5110027;28;20069;-65
2022/08/30 04:14:17;;;;;;;4.25;3.30;;;16.40;99.90;;;;;;5110243;28;20462;-65
2022/08/30 04:16:42;;;;;;;6.28;3.70;;;16.60;99.90;;;;;;5110351;28;21875;-65
2022/08/30 04:19:08;;;;;;;7.22;3.60;;;16.50;99.90;;;;;;5109798;28;20109;-65
2022/08/30 04:21:34;;;;;;;4.03;3.20;;;16.20;99.90;;;;;;5110187;28;20023;-65
2022/08/30 04:24:00;;;;;;;5.03;3.25;;;16.60;99.90;;;;;;5113616;28;20036;-65
2022/08/30 04:26:26;;;;;;;5.18;3.85;;;16.30;99.90;;;;;;5113492;28;20023;-65
2022/08/30 04:28:53;;;;;;;6.82;3.70;;;16.00;99.90;;;;;;5114142;28;20042;-65
2022/08/30 04:31:20;;;;;;;4.22;3.28;;;16.20;99.90;;;;;;5111223;28;20864;-66
2022/08/30 04:33:46;;;;;;;5.88;3.58;;;16.10;99.90;;;;;;5111984;28;20042;-65
2022/08/30 04:36:12;;;;;;;5.05;3.75;;;16.30;99.90;;;;;;5113766;28;20092;-65
2022/08/30 04:38:39;;;;;;;5.00;3.22;;;16.30;99.90;;;;;;5114052;28;20031;-65
2022/08/30 04:41:15;;;;;;;4.28;3.20;;;16.30;99.90;;;;;;5114487;28;20035;-65
2022/08/30 04:43:41;;;;;;;6.07;3.15;;;16.00;99.90;;;;;;5113241;28;20046;-65
2022/08/30 04:46:08;;;;;;;4.47;3.28;;;15.90;99.90;;;;;;5113698;28;20059;-65
2022/08/30 04:48:36;;;;;;;6.72;3.20;;;16.80;99.90;;;;;;5123939;27;20050;-64
2022/08/30 04:51:07;;;;;;;5.18;3.38;;;17.70;99.90;;;;;;5111343;28;20480;-64
2022/08/30 04:53:33;;;;;;;6.32;3.08;;;16.80;99.90;;;;;;5101922;28;20388;-65
2022/08/30 04:55:59;;;;;;;5.40;3.70;;;17.30;99.90;;;;;;5114373;27;20518;-63
2022/08/30 04:58:25;;;;;;;6.90;3.67;;;17.10;99.90;;;;;;5097325;28;20024;-62
2022/08/30 05:00:51;;;;;;;5.35;3.50;;;16.20;99.90;;;;;;5094494;28;20020;-62
2022/08/30 05:03:16;;;;;;;4.90;3.65;;;15.80;99.90;;;;;;5107543;28;20049;-65
2022/08/30 05:05:49;;;;;;;6.20;3.70;;;15.60;99.90;;;;;;5113253;28;20020;-64
2022/08/30 05:08:17;;;;;;;6.37;4.00;;;15.60;99.90;;;;;;5113606;28;20063;-64
2022/08/30 05:10:47;;;;;;;7.00;3.92;;;15.50;99.90;;;;;;5114337;28;20040;-65
2022/08/30 05:13:14;;;;;;;5.68;3.45;;;15.50;99.90;;;;;;5114265;28;20110;-66
2022/08/30 05:15:40;;;;;;;4.97;3.50;;;15.70;99.90;;;;;;5113557;28;20074;-66
2022/08/30 05:18:08;;;;;;;5.85;3.92;;;15.70;99.90;;;;;;5112681;28;20031;-66
2022/08/30 05:20:35;;;;;;;5.35;3.65;;;15.60;99.90;;;;;;5114081;28;20031;-64
2022/08/30 05:23:01;;;;;;;6.80;3.60;;;15.80;99.90;;;;;;5112482;28;20024;-66
2022/08/30 05:25:30;;;;;;;6.07;3.30;;;15.60;99.90;;;;;;5113929;28;20484;-66
2022/08/30 05:27:56;;;;;;;9.15;3.97;;;16.10;99.90;;;;;;5113984;28;20031;-65
2022/08/30 05:30:24;;;;;;;4.82;3.58;;;16.10;99.90;;;;;;5113066;28;20027;-62
2022/08/30 05:32:50;;;;;;;5.57;3.65;;;16.60;99.90;;;;;;5110664;28;20094;-65
2022/08/30 05:35:17;;;;;;;4.28;3.63;;;16.10;99.90;;;;;;5111815;28;20544;-64
2022/08/30 05:37:44;;;;;;;7.18;4.25;;;16.00;99.90;;;;;;5113015;28;20019;-64
2022/08/30 05:40:12;;;;;;;7.82;4.00;;;16.20;99.90;;;;;;5113855;28;20110;-64
2022/08/30 05:42:41;;;;;;;5.82;3.85;;;15.80;99.90;;;;;;5111330;28;20081;-64
2022/08/30 05:45:07;;;;;;;7.50;3.90;;;15.90;99.90;;;;;;5113374;28;20035;-65
2022/08/30 05:47:33;;;;;;;6.25;4.00;;;16.00;99.90;;;;;;5111875;28;20039;-64
2022/08/30 05:49:59;;;;;;;10.68;4.30;;;16.00;99.90;;;;;;5114175;28;20088;-65
2022/08/30 05:52:24;;;;;;;6.00;3.58;;;15.90;99.90;;;;;;5113687;28;20015;-65
2022/08/30 05:54:53;;;;;;;5.97;3.53;;;16.00;99.90;;;;;;5110587;28;20065;-64
2022/08/30 05:57:19;;;;;;;6.28;3.90;;;16.20;99.90;;;;;;5103914;28;20106;-64
2022/08/30 05:59:45;;;;;;;5.43;3.65;;;16.10;99.90;;;;;;5092988;28;20074;-63
2022/08/30 06:02:11;;;;;;;7.20;3.95;;;16.20;99.90;;;;;;5097765;28;20027;-64
2022/08/30 06:04:37;;;;;;;7.13;3.50;;;16.40;99.90;;;;;;5103187;28;20023;-65
2022/08/30 06:07:04;;;;;;;5.28;3.60;;;16.50;99.90;;;;;;5112011;28;20043;-64
2022/08/30 06:09:30;;;;;;;5.90;3.80;;;17.30;99.90;;;;;;5111846;28;20422;-65
2022/08/30 06:11:56;;;;;;;5.03;3.83;;;17.10;99.90;;;;;;5113397;28;20023;-65
2022/08/30 06:14:22;;;;;;;7.03;3.67;;;16.80;99.90;;;;;;5111905;28;20023;-64
2022/08/30 06:16:48;;;;;;;5.88;3.70;;;17.40;99.90;;;;;;5113217;28;20381;-65
2022/08/30 06:19:15;;;;;;;6.03;3.10;;;19.10;99.90;;;;;;5111794;28;20031;-65
2022/08/30 06:21:41;;;;;;;5.57;3.90;;;20.30;99.90;;;;;;5113004;27;20023;-65
2022/08/30 06:24:09;;;;;;;6.30;3.47;;;21.10;99.90;;;;;;5112040;28;20476;-65
2022/08/30 06:26:43;;;;;;;9.32;4.10;;;21.70;99.90;;;;;;5112877;28;20027;-65
2022/08/30 06:29:11;;;;;;;6.82;3.60;;;22.30;99.90;;;;;;5111328;28;20089;-64
2022/08/30 06:31:37;;;;;;;8.15;3.75;;;22.70;99.90;;;;;;5111139;28;20452;-65
2022/08/30 06:34:04;;;;;;;8.45;3.53;;;23.40;99.90;;;;;;5109858;28;20062;-64
2022/08/30 06:36:31;;;;;;;5.68;3.70;;;24.30;99.90;;;;;;5112149;28;20031;-65
2022/08/30 06:38:57;;;;;;;4.55;3.47;;;24.40;99.90;;;;;;5111740;28;20020;-65
2022/08/30 06:41:29;;;;;;;6.15;3.95;;;24.40;99.90;;;;;;5112560;28;20038;-64
2022/08/30 06:43:55;;;;;;;6.80;3.58;;;24.80;99.90;;;;;;5111357;28;20016;-65
2022/08/30 06:46:26;;;;;;;6.15;3.90;;;25.30;99.90;;;;;;5111480;28;20055;-64
2022/08/30 06:48:52;;;;;;;6.10;3.58;;;25.80;99.90;;;;;;5104899;28;20567;-65
2022/08/30 06:51:21;;;;;;;5.15;3.42;;;26.00;99.90;;;;;;5105853;28;20062;-65
2022/08/30 06:53:47;;;;;;;5.70;3.60;;;26.30;99.90;;;;;;5111590;28;20445;-65
2022/08/30 06:56:14;;;;;;;5.63;3.70;;;26.70;99.90;;;;;;5103174;28;20360;-65
2022/08/30 06:58:40;;;;;;;5.45;3.55;;;27.00;99.90;;;;;;5110495;28;20057;-65
2022/08/30 07:01:07;;;;;;;7.10;4.10;;;27.40;99.90;;;;;;5112021;28;20020;-65
2022/08/30 07:03:36;;;;;;;6.40;3.40;;;28.00;99.30;;;;;;5107950;28;20070;-65
2022/08/30 07:06:02;;;;;;;5.78;3.90;;;28.40;98.40;;;;;;5108466;28;20024;-65
2022/08/30 07:08:28;;;;;;;6.57;4.43;;;28.70;97.70;;;;;;5105863;28;20039;-65
2022/08/30 07:10:53;;;;;;;7.22;4.40;;;29.20;96.90;;;;;;5095251;28;20024;-64
2022/08/30 07:13:20;;;;;;;6.43;4.10;;;29.10;96.00;;;;;;5100481;28;20084;-64
2022/08/30 07:15:46;;;;;;;7.75;4.22;;;27.80;96.80;;;;;;5103918;28;20024;-65
2022/08/30 07:21:04;;;;;;;7.32;3.97;;;28.80;96.90;;;;;;5112526;28;20031;-63
2022/08/30 07:23:29;;;;;;;5.57;3.60;;;29.50;95.90;;;;;;5104895;28;20119;-63
2022/08/30 07:25:55;;;;;;;6.25;3.53;;;28.10;96.60;;;;;;5111278;28;20119;-63
2022/08/30 07:28:21;;;;;;;6.43;3.33;;;29.60;96.30;;;;;;5109604;28;20492;-63
2022/08/30 07:30:47;;;;;;;9.63;5.05;;;30.00;95.10;;;;;;5111923;28;20080;-62
2022/08/30 07:33:13;;;;;;;5.38;3.30;;;29.70;95.00;;;;;;5110974;28;20024;-64
2022/08/30 07:35:39;;;;;;;5.65;3.22;;;28.00;97.00;;;;;;5110905;28;20049;-64
2022/08/30 07:38:04;;;;;;;7.50;3.42;;;27.80;97.70;;;;;;5110845;28;20042;-63
2022/08/30 07:40:30;;;;;;;4.90;3.45;;;30.00;95.80;;;;;;5111434;28;20020;-63
2022/08/30 07:42:57;;;;;;;4.82;3.30;;;28.80;97.10;;;;;;5108395;28;20032;-64
2022/08/30 07:45:23;;;;;;;8.13;3.50;;;28.70;97.70;;;;;;5110865;28;20056;-63
2022/08/30 07:47:49;;;;;;;6.15;3.63;;;29.10;97.60;;;;;;5111408;28;20140;-65
2022/08/30 07:50:14;;;;;;;8.50;4.00;;;29.30;96.00;;;;;;5111766;28;20028;-65
2022/08/30 07:52:40;;;;;;;5.53;3.80;;;29.30;96.60;;;;;;5110901;28;20437;-64
2022/08/30 07:55:07;;;;;;;6.25;4.57;;;30.10;96.60;;;;;;5111467;28;20555;-63
2022/08/30 07:57:33;;;;;;;5.47;4.78;;;28.50;97.80;;;;;;5114010;28;20028;-64
2022/08/30 07:59:59;;;;;;;6.47;4.88;;;27.70;98.10;;;;;;5115546;28;20023;-64
2022/08/30 08:02:25;;;;;;;7.28;4.97;;;30.00;96.60;;;;;;5115656;28;20449;-64
2022/08/30 08:04:51;;;;;;;8.30;5.00;;;31.80;94.30;;;;;;5114834;28;20059;-64
2022/08/30 08:07:16;;;;;;;7.20;4.97;;;31.30;94.00;;;;;;5115616;28;20034;-64
2022/08/30 08:09:42;;;;;;;10.07;5.70;;;33.50;93.10;;;;;;5114816;28;20039;-64
2022/08/30 08:12:08;;;;;;;12.93;6.20;;;33.60;91.90;;;;;;5114980;28;20023;-64
2022/08/30 08:14:34;;;;;;;8.63;6.80;;;33.00;92.40;;;;;;5115955;28;20036;-63
2022/08/30 08:17:00;;;;;;;105.43;30.10;;;34.50;92.10;;;;;;5115455;28;20031;-64
2022/08/30 08:19:26;;;;;;;1999.90;781.70;;;30.80;99.90;;;;;;5115351;28;20027;-64
2022/08/30 08:21:58;;;;;;;23.55;10.52;;;27.40;99.90;;;;;;5114632;28;20059;-64
2022/08/30 08:24:28;;;;;;;23.40;20.55;;;25.70;99.90;;;;;;5110165;28;20108;-63
2022/08/30 08:26:54;;;;;;;11.00;10.10;;;24.60;99.90;;;;;;5114686;28;20084;-64
2022/08/30 08:29:21;;;;;;;11.05;3.83;;;24.30;99.90;;;;;;5115496;28;20020;-57
2022/08/30 08:31:47;;;;;;;7.38;3.30;;;23.00;99.90;;;;;;5115461;27;20619;-57
2022/08/30 08:34:13;;;;;;;6.38;3.03;;;21.90;99.90;;;;;;5115429;28;20028;-57
2022/08/30 08:36:39;;;;;;;7.35;3.05;;;21.40;99.90;;;;;;5115710;28;20024;-57
2022/08/30 08:39:07;;;;;;;85.50;14.60;;;21.30;99.90;;;;;;5115068;28;20471;-57
2022/08/30 08:42:02;;;;;;;33.28;7.53;;;21.20;99.90;;;;;;5114964;28;20453;-57
2022/08/30 08:44:55;;;;;;;129.23;19.02;;;21.40;99.90;;;;;;5115534;28;20032;-56
2022/08/30 08:47:43;;;;;;;736.20;125.47;;;21.60;99.90;;;;;;5115316;28;20071;-56
2022/08/30 08:50:16;;;;;;;49.22;10.20;;;21.70;99.90;;;;;;5115045;28;20128;-56
2022/08/30 08:55:52;;;;;;;9.40;3.60;;;21.70;99.90;;;;;;5111261;28;20034;-54
2022/08/30 08:58:27;;;;;;;6.90;3.08;;;21.90;99.90;;;;;;5113074;28;20392;-53
2022/08/30 09:00:56;;;;;;;7.90;3.30;;;22.00;99.90;;;;;;5112395;28;20031;-51
2022/08/30 09:03:25;;;;;;;6.93;2.60;;;22.10;99.90;;;;;;5099848;28;20031;-55
2022/08/30 09:05:52;;;;;;;5.05;2.88;;;22.20;99.90;;;;;;5113731;28;20045;-53
2022/08/30 09:08:20;;;;;;;5.85;2.78;;;22.30;99.90;;;;;;5113094;28;20039;-53
2022/08/30 09:11:02;;;;;;;8.38;2.90;;;22.40;99.90;;;;;;5113976;28;20480;-53
2022/08/30 09:13:28;;;;;;;7.22;2.75;;;22.50;99.90;;;;;;5114276;28;20038;-54
2022/08/30 09:15:56;;;;;;;8.88;2.75;;;22.60;99.90;;;;;;5106894;28;20038;-52
2022/08/30 09:18:45;;;;;;;8.57;2.95;;;22.60;99.90;;;;;;5111456;28;20508;-52
2022/08/30 09:21:13;;;;;;;6.88;2.75;;;22.60;99.90;;;;;;5102537;28;20059;-52
2022/08/30 09:23:55;;;;;;;6.10;2.80;;;22.60;99.90;;;;;;5113619;28;20077;-54
2022/08/30 09:26:32;;;;;;;8.05;3.03;;;22.80;99.90;;;;;;5112904;28;20451;-50
2022/08/30 09:28:59;;;;;;;6.32;3.00;;;22.90;99.90;;;;;;5111303;28;20202;-53
2022/08/30 09:31:26;;;;;;;7.38;3.20;;;22.90;99.90;;;;;;5113882;28;20098;-55
2022/08/30 09:34:04;;;;;;;6.57;2.80;;;22.90;99.90;;;;;;5110932;28;20032;-55
2022/08/30 09:36:43;;;;;;;8.68;2.92;;;23.10;99.90;;;;;;5102556;28;20020;-55
2022/08/30 09:39:19;;;;;;;5.88;2.75;;;23.20;99.90;;;;;;5112107;28;20076;-57
2022/08/30 09:41:48;;;;;;;12.02;3.40;;;31.10;99.90;;;;;;5112870;28;20024;-57
2022/08/30 09:44:23;;;;;;;22.55;4.85;;;35.70;99.90;;;;;;5113098;28;20024;-57
2022/08/30 09:46:55;;;;;;;22.92;5.25;;;37.60;99.90;;;;;;5110211;28;20127;-56
2022/08/30 09:49:36;;;;;;;24.15;5.38;;;38.10;94.20;;;;;;5113083;28;20031;-56
2022/08/30 09:52:23;;;;;;;23.70;4.53;;;38.20;88.50;;;;;;5112073;28;20122;-56
2022/08/30 09:55:04;;;;;;;12.60;3.58;;;37.60;87.70;;;;;;5110645;28;20028;-56
2022/08/30 09:57:44;;;;;;;8.02;2.97;;;37.70;87.20;;;;;;5103250;28;20038;-57
2022/08/30 10:00:28;;;;;;;9.32;3.72;;;38.50;83.90;;;;;;5112882;28;20039;-57
2022/08/30 10:03:15;;;;;;;10.38;3.67;;;38.40;82.80;;;;;;5109709;28;20028;-57
2022/08/30 10:05:46;;;;;;;8.27;3.00;;;38.70;81.30;;;;;;5109454;28;20027;-57
2022/08/30 10:08:57;;;;;;;6.60;3.25;;;39.10;81.40;;;;;;5107576;28;20084;-58
2022/08/30 10:11:34;;;;;;;8.35;3.13;;;38.90;80.70;;;;;;5049585;28;20033;-58
2022/08/30 10:14:12;;;;;;;7.38;2.83;;;39.30;79.60;;;;;;5049928;28;20497;-58
2022/08/30 10:17:02;;;;;;;10.18;3.22;;;37.20;83.70;;;;;;5049854;28;20036;-57
2022/08/30 10:19:53;;;;;;;10.48;3.50;;;37.80;80.50;;;;;;5047456;28;20095;-58
2022/08/30 10:22:33;;;;;;;7.82;3.25;;;38.60;80.60;;;;;;5047002;28;20067;-57
2022/08/30 10:25:09;;;;;;;6.60;3.20;;;37.80;80.00;;;;;;5049910;28;20045;-57
2022/08/30 10:28:00;;;;;;;10.63;3.30;;;38.70;80.50;;;;;;5048502;28;20072;-58
2022/08/30 10:30:28;;;;;;;6.38;3.03;;;35.80;82.30;;;;;;5049362;28;20033;-57
2022/08/30 10:33:05;;;;;;;8.35;2.88;;;37.50;79.60;;;;;;5049159;28;20033;-56
2022/08/30 10:35:43;;;;;;;6.50;2.97;;;36.40;79.80;;;;;;5049399;28;20025;-58
2022/08/30 10:38:22;;;;;;;6.93;2.60;;;35.40;82.50;;;;;;5031623;28;20132;-57
2022/08/30 10:41:14;;;;;;;7.38;2.45;;;34.60;83.00;;;;;;5049011;28;20104;-57
2022/08/30 10:43:51;;;;;;;4.72;2.55;;;35.10;81.30;;;;;;5049148;28;20035;-57
2022/08/30 10:46:47;;;;;;;4.75;2.35;;;34.60;82.20;;;;;;5107786;28;20385;-57
2022/08/30 10:49:20;;;;;;;5.35;2.65;;;35.10;81.40;;;;;;5110890;28;20036;-57
2022/08/30 10:51:51;;;;;;;7.22;2.53;;;35.10;81.70;;;;;;5111534;28;20058;-57
2022/08/30 10:54:30;;;;;;;4.93;2.50;;;35.00;80.00;;;;;;5112561;28;20145;-57
2022/08/30 10:56:56;;;;;;;4.80;2.35;;;34.80;80.60;;;;;;5111570;28;20016;-58
2022/08/30 10:59:23;;;;;;;4.88;2.55;;;34.70;81.50;;;;;;5111257;28;20027;-57
2022/08/30 11:02:10;;;;;;;5.72;2.70;;;35.00;80.20;;;;;;5111826;28;20094;-58
2022/08/30 11:05:13;;;;;;;6.53;2.28;;;33.80;82.30;;;;;;5112147;28;20484;-57
2022/08/30 11:08:04;;;;;;;6.07;2.40;;;34.40;81.40;;;;;;5111881;28;20508;-58
2022/08/30 11:10:36;;;;;;;4.75;2.40;;;34.30;81.80;;;;;;5111694;28;20019;-58
2022/08/30 11:13:12;;;;;;;4.90;2.27;;;35.10;81.90;;;;;;5112080;28;20024;-57
2022/08/30 11:16:00;;;;;;;5.40;2.10;;;35.20;80.30;;;;;;5112129;28;20323;-58
2022/08/30 11:18:29;;;;;;;5.35;2.33;;;35.50;80.20;;;;;;5111406;28;20047;-57
2022/08/30 11:21:21;;;;;;;9.57;2.60;;;34.20;81.60;;;;;;5110420;28;20019;-57
2022/08/30 11:24:04;;;;;;;6.97;2.40;;;33.90;82.80;;;;;;5111660;28;20483;-57
2022/08/30 11:26:45;;;;;;;5.60;2.63;;;34.70;81.20;;;;;;5111398;28;20016;-57
2022/08/30 11:29:32;;;;;;;6.40;2.38;;;35.00;80.60;;;;;;5111484;28;20122;-58
2022/08/30 11:32:11;;;;;;;7.22;2.22;;;34.70;79.80;;;;;;5112834;28;20032;-58
2022/08/30 11:34:46;;;;;;;12.55;2.42;;;34.20;79.60;;;;;;5115149;28;20039;-57
2022/08/30 11:37:35;;;;;;;10.88;2.60;;;34.60;80.10;;;;;;5116018;28;20016;-58
2022/08/30 11:40:33;;;;;;;7.22;2.25;;;34.40;80.00;;;;;;5115861;28;20028;-58
2022/08/30 11:43:33;;;;;;;5.60;2.25;;;33.80;81.90;;;;;;5114510;28;20114;-58
2022/08/30 11:46:26;;;;;;;5.03;2.15;;;34.30;81.30;;;;;;5115510;28;20050;-59
2022/08/30 11:49:01;;;;;;;6.07;2.28;;;33.90;82.20;;;;;;5114422;27;20039;-58
2022/08/30 11:52:07;;;;;;;6.97;2.33;;;33.90;81.10;;;;;;5113573;28;20019;-59
2022/08/30 11:55:10;;;;;;;4.25;2.30;;;33.50;81.10;;;;;;5113416;28;20032;-59
2022/08/30 11:57:47;;;;;;;3.35;2.00;;;34.00;80.90;;;;;;5114738;28;20062;-58
2022/08/30 12:00:32;;;;;;;6.20;2.20;;;33.80;81.10;;;;;;5106123;28;20051;-57
2022/08/30 12:03:05;;;;;;;6.68;2.13;;;32.80;83.40;;;;;;5111814;28;20055;-58
2022/08/30 12:05:39;;;;;;;6.75;2.00;;;33.70;81.80;;;;;;5114972;28;20389;-58
2022/08/30 12:08:27;;;;;;;6.45;2.00;;;32.90;78.90;;;;;;5114512;28;20520;-58
2022/08/30 12:11:02;;;;;;;3.97;2.00;;;32.80;79.00;;;;;;5114655;28;20484;-58
2022/08/30 12:13:35;;;;;;;3.80;2.00;;;33.30;79.90;;;;;;5114219;28;20431;-59
2022/08/30 12:16:13;;;;;;;6.05;2.38;;;33.60;80.30;;;;;;5115555;28;20047;-58
2022/08/30 12:18:51;;;;;;;5.82;2.22;;;33.30;80.70;;;;;;5114103;28;20039;-58
2022/08/30 12:21:20;;;;;;;5.68;2.33;;;33.70;79.50;;;;;;5115089;28;20034;-59
2022/08/30 12:24:09;;;;;;;5.82;2.50;;;33.70;80.30;;;;;;5114115;28;20095;-58
2022/08/30 12:26:43;;;;;;;5.22;2.00;;;33.90;80.10;;;;;;5114639;28;20046;-59
2022/08/30 12:29:21;;;;;;;6.88;2.40;;;33.70;80.90;;;;;;5112971;28;20069;-57
2022/08/30 12:32:03;;;;;;;6.40;2.47;;;33.60;80.40;;;;;;5113708;28;20027;-57
2022/08/30 12:34:42;;;;;;;7.95;2.38;;;33.80;80.60;;;;;;5096881;28;20023;-58
2022/08/30 12:37:27;;;;;;;3.88;2.22;;;33.20;81.60;;;;;;5114035;28;20100;-58
2022/08/30 12:40:16;;;;;;;5.60;2.60;;;33.10;82.30;;;;;;5113518;28;20518;-58
2022/08/30 12:42:53;;;;;;;6.00;2.60;;;33.50;83.40;;;;;;5103632;28;20055;-58
2022/08/30 12:45:22;;;;;;;6.63;2.80;;;33.60;82.90;;;;;;5111550;28;20053;-59
2022/08/30 12:48:00;;;;;;;6.15;2.70;;;33.70;82.50;;;;;;5113366;28;20054;-60
2022/08/30 12:50:30;;;;;;;5.47;2.50;;;32.90;84.40;;;;;;5114419;28;20506;-59
2022/08/30 12:53:02;;;;;;;6.85;2.80;;;32.70;85.30;;;;;;5113921;28;20019;-59
2022/08/30 12:55:31;;;;;;;5.85;2.70;;;32.10;86.90;;;;;;5113505;28;20043;-59
2022/08/30 12:58:03;;;;;;;4.38;2.47;;;31.70;88.00;;;;;;5113264;28;20095;-58
2022/08/30 13:00:44;;;;;;;5.82;2.50;;;31.60;88.60;;;;;;5113720;28;20031;-59
2022/08/30 13:03:35;;;;;;;6.00;2.63;;;31.60;88.80;;;;;;5112966;28;20480;-58
2022/08/30 13:06:02;;;;;;;5.55;2.78;;;31.60;89.60;;;;;;5113918;28;20031;-58
2022/08/30 13:08:47;;;;;;;7.15;3.10;;;31.80;89.00;;;;;;5113182;28;20032;-58
2022/08/30 13:11:23;;;;;;;5.32;3.10;;;31.20;90.20;;;;;;5113929;28;20102;-59
2022/08/30 13:13:55;;;;;;;7.88;3.88;;;31.40;90.90;;;;;;5113189;28;20042;-58